sensor_id;sensor_type;location;lat;lon;timestamp;pressure;altitude;pressure_sealevel;temperature;humidity
73151;BME280;61354;50.758;6.106;2022-12-18T00:00:41;100297.22;;;-5.91;81.71
73151;BME280;61354;50.758;6.106;2022-12-18T00:03:07;100293.94;;;-5.93;81.42
73151;BME280;61354;50.758;6.106;2022-12-18T00:05:32;100293.56;;;-5.78;81.03
73151;BME280;61354;50.758;6.106;2022-12-18T00:07:58;100292.13;;;-5.81;80.55
73151;BME280;61354;50.758;6.106;2022-12-18T00:10:23;100291.78;;;-5.66;80.02
73151;BME280;61354;50.758;6.106;2022-12-18T00:12:49;100289.00;;;-5.59;80.36
73151;BME280;61354;50.758;6.106;2022-12-18T00:15:14;100291.44;;;-5.51;75.15
73151;BME280;61354;50.758;6.106;2022-12-18T00:17:40;100291.34;;;-5.44;76.36
73151;BME280;61354;50.758;6.106;2022-12-18T00:20:06;100292.78;;;-5.42;77.46
73151;BME280;61354;50.758;6.106;2022-12-18T00:22:31;100287.97;;;-5.40;76.95
73151;BME280;61354;50.758;6.106;2022-12-18T00:24:57;100293.38;;;-5.40;75.96
73151;BME280;61354;50.758;6.106;2022-12-18T00:27:22;100298.06;;;-5.47;76.97
73151;BME280;61354;50.758;6.106;2022-12-18T00:29:48;100311.09;;;-5.62;78.59
73151;BME280;61354;50.758;6.106;2022-12-18T00:32:14;100307.97;;;-5.84;78.80
73151;BME280;61354;50.758;6.106;2022-12-18T00:34:39;100301.94;;;-6.05;78.92
73151;BME280;61354;50.758;6.106;2022-12-18T00:37:05;100306.97;;;-6.08;79.25
73151;BME280;61354;50.758;6.106;2022-12-18T00:39:30;100303.97;;;-6.00;79.36
73151;BME280;61354;50.758;6.106;2022-12-18T00:41:56;100290.31;;;-6.05;79.40
73151;BME280;61354;50.758;6.106;2022-12-18T00:44:39;100294.09;;;-6.13;79.77
73151;BME280;61354;50.758;6.106;2022-12-18T00:47:05;100298.34;;;-6.23;80.47
73151;BME280;61354;50.758;6.106;2022-12-18T00:49:30;100292.91;;;-6.17;80.71
73151;BME280;61354;50.758;6.106;2022-12-18T00:51:56;100291.59;;;-6.14;80.08
73151;BME280;61354;50.758;6.106;2022-12-18T00:54:21;100293.47;;;-6.40;80.35
73151;BME280;61354;50.758;6.106;2022-12-18T00:56:46;100290.19;;;-6.48;80.93
73151;BME280;61354;50.758;6.106;2022-12-18T00:59:12;100288.69;;;-6.38;81.39
73151;BME280;61354;50.758;6.106;2022-12-18T01:01:37;100290.06;;;-6.29;80.75
73151;BME280;61354;50.758;6.106;2022-12-18T01:04:03;100286.28;;;-6.21;80.51
73151;BME280;61354;50.758;6.106;2022-12-18T01:06:29;100290.06;;;-6.29;79.10
73151;BME280;61354;50.758;6.106;2022-12-18T01:08:55;100279.66;;;-6.25;79.17
73151;BME280;61354;50.758;6.106;2022-12-18T01:11:21;100280.78;;;-6.14;78.73
73151;BME280;61354;50.758;6.106;2022-12-18T01:13:46;100280.31;;;-6.05;78.77
73151;BME280;61354;50.758;6.106;2022-12-18T01:16:13;100278.75;;;-5.94;77.95
73151;BME280;61354;50.758;6.106;2022-12-18T01:18:40;100270.31;;;-6.04;78.11
73151;BME280;61354;50.758;6.106;2022-12-18T01:21:07;100269.81;;;-5.94;76.99
73151;BME280;61354;50.758;6.106;2022-12-18T01:23:32;100263.00;;;-5.97;76.69
73151;BME280;61354;50.758;6.106;2022-12-18T01:25:58;100258.78;;;-5.93;76.07
73151;BME280;61354;50.758;6.106;2022-12-18T01:28:23;100256.56;;;-6.03;77.20
73151;BME280;61354;50.758;6.106;2022-12-18T01:30:49;100258.88;;;-6.06;77.16
73151;BME280;61354;50.758;6.106;2022-12-18T01:33:14;100254.97;;;-6.10;76.88
73151;BME280;61354;50.758;6.106;2022-12-18T01:35:43;100250.09;;;-6.02;77.25
73151;BME280;61354;50.758;6.106;2022-12-18T01:38:09;100249.75;;;-6.05;76.80
73151;BME280;61354;50.758;6.106;2022-12-18T01:40:35;100257.09;;;-6.12;77.03
73151;BME280;61354;50.758;6.106;2022-12-18T01:43:00;100268.56;;;-6.17;77.13
73151;BME280;61354;50.758;6.106;2022-12-18T01:45:28;100272.53;;;-6.19;77.24
73151;BME280;61354;50.758;6.106;2022-12-18T01:48:03;100269.16;;;-6.15;77.67
73151;BME280;61354;50.758;6.106;2022-12-18T01:50:36;100274.91;;;-6.30;76.79
73151;BME280;61354;50.758;6.106;2022-12-18T01:53:08;100270.16;;;-6.34;76.13
73151;BME280;61354;50.758;6.106;2022-12-18T01:55:43;100271.91;;;-6.46;76.42
73151;BME280;61354;50.758;6.106;2022-12-18T01:58:10;100275.94;;;-6.31;76.47
73151;BME280;61354;50.758;6.106;2022-12-18T02:00:35;100257.69;;;-6.35;77.08
73151;BME280;61354;50.758;6.106;2022-12-18T02:03:01;100249.56;;;-6.35;76.28
73151;BME280;61354;50.758;6.106;2022-12-18T02:05:54;100256.69;;;-6.41;76.57
73151;BME280;61354;50.758;6.106;2022-12-18T02:08:28;100256.19;;;-6.31;75.32
73151;BME280;61354;50.758;6.106;2022-12-18T02:20:19;100240.47;;;-6.41;76.57
73151;BME280;61354;50.758;6.106;2022-12-18T02:26:40;100233.97;;;-6.33;75.81
73151;BME280;61354;50.758;6.106;2022-12-18T02:28:46;100236.88;;;-6.35;76.81
73151;BME280;61354;50.758;6.106;2022-12-18T02:31:27;100243.28;;;-6.54;77.01
73151;BME280;61354;50.758;6.106;2022-12-18T02:34:00;100241.63;;;-6.55;77.76
73151;BME280;61354;50.758;6.106;2022-12-18T02:36:27;100240.41;;;-6.59;77.10
73151;BME280;61354;50.758;6.106;2022-12-18T02:38:55;100239.56;;;-6.60;77.71
73151;BME280;61354;50.758;6.106;2022-12-18T02:41:25;100255.50;;;-6.52;76.61
73151;BME280;61354;50.758;6.106;2022-12-18T02:43:56;100255.88;;;-6.73;76.65
73151;BME280;61354;50.758;6.106;2022-12-18T02:49:23;100245.53;;;-6.51;77.19
73151;BME280;61354;50.758;6.106;2022-12-18T02:51:56;100246.09;;;-6.67;77.51
73151;BME280;61354;50.758;6.106;2022-12-18T02:54:55;100235.63;;;-6.64;77.91
73151;BME280;61354;50.758;6.106;2022-12-18T03:02:35;100237.31;;;-7.01;78.48
73151;BME280;61354;50.758;6.106;2022-12-18T03:10:27;100213.41;;;-6.59;77.63
73151;BME280;61354;50.758;6.106;2022-12-18T03:13:05;100210.56;;;-6.71;78.16
73151;BME280;61354;50.758;6.106;2022-12-18T03:15:37;100218.53;;;-6.83;78.68
73151;BME280;61354;50.758;6.106;2022-12-18T03:18:12;100201.03;;;-6.73;78.62
73151;BME280;61354;50.758;6.106;2022-12-18T03:20:40;100208.31;;;-6.74;78.86
73151;BME280;61354;50.758;6.106;2022-12-18T03:23:10;100208.44;;;-6.94;79.76
73151;BME280;61354;50.758;6.106;2022-12-18T03:25:40;100200.84;;;-6.79;79.08
73151;BME280;61354;50.758;6.106;2022-12-18T03:28:10;100191.97;;;-6.86;78.74
73151;BME280;61354;50.758;6.106;2022-12-18T03:30:38;100194.94;;;-6.94;79.25
73151;BME280;61354;50.758;6.106;2022-12-18T03:33:10;100192.06;;;-6.99;79.45
73151;BME280;61354;50.758;6.106;2022-12-18T03:35:40;100192.66;;;-6.97;79.06
73151;BME280;61354;50.758;6.106;2022-12-18T03:38:07;100191.25;;;-7.06;79.36
73151;BME280;61354;50.758;6.106;2022-12-18T03:41:01;100188.13;;;-7.03;78.79
73151;BME280;61354;50.758;6.106;2022-12-18T03:43:52;100180.78;;;-7.21;79.09
73151;BME280;61354;50.758;6.106;2022-12-18T03:46:33;100178.91;;;-7.20;79.40
73151;BME280;61354;50.758;6.106;2022-12-18T03:49:26;100185.78;;;-7.31;80.62
73151;BME280;61354;50.758;6.106;2022-12-18T03:54:30;100181.78;;;-7.22;80.77
73151;BME280;61354;50.758;6.106;2022-12-18T03:57:05;100183.34;;;-7.01;79.76
73151;BME280;61354;50.758;6.106;2022-12-18T03:59:33;100179.63;;;-7.00;79.14
73151;BME280;61354;50.758;6.106;2022-12-18T04:02:00;100176.13;;;-7.07;79.66
73151;BME280;61354;50.758;6.106;2022-12-18T04:04:27;100172.03;;;-7.16;80.56
73151;BME280;61354;50.758;6.106;2022-12-18T04:06:54;100167.78;;;-7.06;80.00
73151;BME280;61354;50.758;6.106;2022-12-18T04:09:21;100170.56;;;-7.12;79.99
73151;BME280;61354;50.758;6.106;2022-12-18T04:11:47;100177.84;;;-7.19;80.55
73151;BME280;61354;50.758;6.106;2022-12-18T04:14:13;100181.44;;;-7.26;80.62
73151;BME280;61354;50.758;6.106;2022-12-18T04:16:38;100172.34;;;-7.38;81.27
73151;BME280;61354;50.758;6.106;2022-12-18T04:19:04;100171.47;;;-7.32;81.51
73151;BME280;61354;50.758;6.106;2022-12-18T04:21:30;100172.72;;;-7.28;80.42
73151;BME280;61354;50.758;6.106;2022-12-18T04:23:55;100174.44;;;-7.46;82.09
73151;BME280;61354;50.758;6.106;2022-12-18T04:26:21;100170.53;;;-7.51;81.11
73151;BME280;61354;50.758;6.106;2022-12-18T04:28:46;100158.66;;;-7.43;81.80
73151;BME280;61354;50.758;6.106;2022-12-18T04:31:12;100162.78;;;-7.79;82.93
73151;BME280;61354;50.758;6.106;2022-12-18T04:33:37;100157.03;;;-7.44;82.46
73151;BME280;61354;50.758;6.106;2022-12-18T04:36:03;100157.03;;;-7.44;82.24
73151;BME280;61354;50.758;6.106;2022-12-18T04:38:28;100156.63;;;-7.47;81.90
73151;BME280;61354;50.758;6.106;2022-12-18T04:40:54;100143.78;;;-7.52;82.54
73151;BME280;61354;50.758;6.106;2022-12-18T04:43:19;100145.38;;;-7.38;82.43
73151;BME280;61354;50.758;6.106;2022-12-18T04:45:45;100138.75;;;-7.42;81.68
73151;BME280;61354;50.758;6.106;2022-12-18T04:48:10;100146.16;;;-7.31;81.83
73151;BME280;61354;50.758;6.106;2022-12-18T04:50:36;100141.25;;;-7.47;82.18
73151;BME280;61354;50.758;6.106;2022-12-18T04:53:01;100150.16;;;-7.40;81.73
73151;BME280;61354;50.758;6.106;2022-12-18T04:55:27;100161.75;;;-7.33;82.48
73151;BME280;61354;50.758;6.106;2022-12-18T04:57:52;100170.69;;;-7.39;81.05
73151;BME280;61354;50.758;6.106;2022-12-18T05:00:18;100171.56;;;-7.45;81.85
73151;BME280;61354;50.758;6.106;2022-12-18T05:02:43;100175.06;;;-7.38;82.08
73151;BME280;61354;50.758;6.106;2022-12-18T05:05:09;100178.97;;;-7.34;82.40
73151;BME280;61354;50.758;6.106;2022-12-18T05:07:35;100182.75;;;-7.41;82.49
73151;BME280;61354;50.758;6.106;2022-12-18T05:10:00;100192.66;;;-7.35;82.07
73151;BME280;61354;50.758;6.106;2022-12-18T05:12:26;100189.72;;;-7.27;81.71
73151;BME280;61354;50.758;6.106;2022-12-18T05:14:51;100197.63;;;-7.26;81.89
73151;BME280;61354;50.758;6.106;2022-12-18T05:17:17;100199.63;;;-7.14;82.04
73151;BME280;61354;50.758;6.106;2022-12-18T05:19:42;100199.63;;;-7.14;82.25
73151;BME280;61354;50.758;6.106;2022-12-18T05:22:09;100196.75;;;-7.19;82.26
73151;BME280;61354;50.758;6.106;2022-12-18T05:24:35;100203.38;;;-7.15;82.74
73151;BME280;61354;50.758;6.106;2022-12-18T05:27:00;100198.88;;;-7.35;83.65
73151;BME280;61354;50.758;6.106;2022-12-18T05:29:26;100195.09;;;-7.20;83.06
73151;BME280;61354;50.758;6.106;2022-12-18T05:31:51;100197.16;;;-7.22;83.18
73151;BME280;61354;50.758;6.106;2022-12-18T05:34:16;100204.66;;;-7.24;83.16
73151;BME280;61354;50.758;6.106;2022-12-18T05:36:42;100203.69;;;-7.37;83.45
73151;BME280;61354;50.758;6.106;2022-12-18T05:39:08;100197.41;;;-7.31;83.44
73151;BME280;61354;50.758;6.106;2022-12-18T05:41:34;100198.53;;;-7.45;83.54
73151;BME280;61354;50.758;6.106;2022-12-18T05:43:59;100197.41;;;-7.31;83.59
73151;BME280;61354;50.758;6.106;2022-12-18T05:46:25;100198.13;;;-7.55;84.34
73151;BME280;61354;50.758;6.106;2022-12-18T05:48:51;100194.19;;;-7.46;84.01
73151;BME280;61354;50.758;6.106;2022-12-18T05:51:19;100183.25;;;-7.64;85.02
73151;BME280;61354;50.758;6.106;2022-12-18T05:53:45;100187.56;;;-7.50;84.46
73151;BME280;61354;50.758;6.106;2022-12-18T05:56:17;100184.38;;;-7.34;83.00
73151;BME280;61354;50.758;6.106;2022-12-18T05:58:43;100188.75;;;-7.39;83.73
73151;BME280;61354;50.758;6.106;2022-12-18T06:01:18;100187.94;;;-7.46;83.22
73151;BME280;61354;50.758;6.106;2022-12-18T06:03:44;100185.94;;;-7.58;83.61
73151;BME280;61354;50.758;6.106;2022-12-18T06:06:18;100191.16;;;-7.69;84.56
73151;BME280;61354;50.758;6.106;2022-12-18T06:08:44;100199.53;;;-7.91;84.47
73151;BME280;61354;50.758;6.106;2022-12-18T06:11:09;100194.50;;;-7.81;84.56
73151;BME280;61354;50.758;6.106;2022-12-18T06:13:35;100190.38;;;-7.83;84.18
73151;BME280;61354;50.758;6.106;2022-12-18T06:16:07;100181.22;;;-7.76;84.29
73151;BME280;61354;50.758;6.106;2022-12-18T06:18:33;100185.81;;;-7.89;85.13
73151;BME280;61354;50.758;6.106;2022-12-18T06:20:59;100179.94;;;-7.66;84.07
73151;BME280;61354;50.758;6.106;2022-12-18T06:23:25;100176.06;;;-7.84;85.09
73151;BME280;61354;50.758;6.106;2022-12-18T06:25:51;100182.31;;;-7.96;85.58
73151;BME280;61354;50.758;6.106;2022-12-18T06:28:17;100178.78;;;-7.84;85.15
73151;BME280;61354;50.758;6.106;2022-12-18T06:30:46;100174.34;;;-7.71;84.45
73151;BME280;61354;50.758;6.106;2022-12-18T06:33:13;100170.88;;;-7.79;84.11
73151;BME280;61354;50.758;6.106;2022-12-18T06:35:39;100176.31;;;-7.92;84.78
73151;BME280;61354;50.758;6.106;2022-12-18T06:38:05;100171.69;;;-7.85;84.80
73151;BME280;61354;50.758;6.106;2022-12-18T06:40:31;100173.38;;;-7.84;84.24
73151;BME280;61354;50.758;6.106;2022-12-18T06:42:57;100183.28;;;-7.71;84.33
73151;BME280;61354;50.758;6.106;2022-12-18T06:45:25;100182.13;;;-7.95;84.55
73151;BME280;61354;50.758;6.106;2022-12-18T06:47:51;100193.72;;;-7.88;84.58
73151;BME280;61354;50.758;6.106;2022-12-18T06:50:16;100195.13;;;-7.79;84.48
73151;BME280;61354;50.758;6.106;2022-12-18T06:52:42;100196.13;;;-7.73;84.31
73151;BME280;61354;50.758;6.106;2022-12-18T06:55:10;100189.91;;;-7.67;83.42
73151;BME280;61354;50.758;6.106;2022-12-18T06:57:36;100190.91;;;-7.61;83.42
73151;BME280;61354;50.758;6.106;2022-12-18T07:00:05;100184.28;;;-7.65;84.01
73151;BME280;61354;50.758;6.106;2022-12-18T07:02:30;100188.69;;;-7.78;84.41
73151;BME280;61354;50.758;6.106;2022-12-18T07:04:56;100188.03;;;-7.66;83.81
73151;BME280;61354;50.758;6.106;2022-12-18T07:07:21;100180.13;;;-7.61;84.27
73151;BME280;61354;50.758;6.106;2022-12-18T07:09:49;100186.66;;;-7.89;85.16
73151;BME280;61354;50.758;6.106;2022-12-18T07:12:14;100180.25;;;-8.01;84.56
73151;BME280;61354;50.758;6.106;2022-12-18T07:14:40;100176.22;;;-7.72;84.25
73151;BME280;61354;50.758;6.106;2022-12-18T07:17:05;100175.41;;;-7.72;84.31
73151;BME280;61354;50.758;6.106;2022-12-18T07:19:31;100169.63;;;-7.83;84.84
73151;BME280;61354;50.758;6.106;2022-12-18T07:21:56;100175.81;;;-7.76;85.17
73151;BME280;61354;50.758;6.106;2022-12-18T07:24:22;100177.91;;;-7.78;85.38
73151;BME280;61354;50.758;6.106;2022-12-18T07:26:47;100179.91;;;-7.60;85.46
73151;BME280;61354;50.758;6.106;2022-12-18T07:29:13;100172.03;;;-7.61;85.73
73151;BME280;61354;50.758;6.106;2022-12-18T07:31:39;100162.53;;;-7.70;85.42
73151;BME280;61354;50.758;6.106;2022-12-18T07:34:04;100158.34;;;-7.60;85.72
73151;BME280;61354;50.758;6.106;2022-12-18T07:36:29;100148.75;;;-7.49;85.57
73151;BME280;61354;50.758;6.106;2022-12-18T07:38:55;100136.75;;;-7.53;85.12
73151;BME280;61354;50.758;6.106;2022-12-18T07:41:21;100140.94;;;-7.64;85.83
73151;BME280;61354;50.758;6.106;2022-12-18T07:43:47;100131.84;;;-7.69;85.35
73151;BME280;61354;50.758;6.106;2022-12-18T07:46:14;100131.44;;;-7.73;85.46
73151;BME280;61354;50.758;6.106;2022-12-18T07:48:41;100121.88;;;-7.76;85.11
73151;BME280;61354;50.758;6.106;2022-12-18T07:51:07;100121.53;;;-7.79;85.45
73151;BME280;61354;50.758;6.106;2022-12-18T07:53:34;100106.75;;;-7.70;85.29
73151;BME280;61354;50.758;6.106;2022-12-18T07:56:03;100111.41;;;-7.52;84.29
73151;BME280;61354;50.758;6.106;2022-12-18T07:58:29;100105.59;;;-7.49;84.69
73151;BME280;61354;50.758;6.106;2022-12-18T08:01:05;100098.16;;;-7.54;85.16
73151;BME280;61354;50.758;6.106;2022-12-18T08:03:32;100105.03;;;-7.64;85.36
73151;BME280;61354;50.758;6.106;2022-12-18T08:06:01;100100.94;;;-7.73;85.92
73151;BME280;61354;50.758;6.106;2022-12-18T08:08:28;100096.09;;;-7.58;85.47
73151;BME280;61354;50.758;6.106;2022-12-18T08:14:08;100093.19;;;-7.57;86.03
73151;BME280;61354;50.758;6.106;2022-12-18T08:20:04;100092.44;;;-7.39;84.88
73151;BME280;61354;50.758;6.106;2022-12-18T08:22:58;100088.75;;;-7.44;85.73
73151;BME280;61354;50.758;6.106;2022-12-18T08:31:59;100083.56;;;-7.14;85.02
73151;BME280;61354;50.758;6.106;2022-12-18T08:37:43;100073.00;;;-7.16;84.69
73151;BME280;61354;50.758;6.106;2022-12-18T08:43:42;100081.81;;;-7.02;84.61
73151;BME280;61354;50.758;6.106;2022-12-18T08:46:39;100081.59;;;-7.01;84.99
73151;BME280;61354;50.758;6.106;2022-12-18T08:52:36;100089.53;;;-6.81;83.83
73151;BME280;61354;50.758;6.106;2022-12-18T08:55:22;100092.41;;;-6.76;84.17
73151;BME280;61354;50.758;6.106;2022-12-18T08:58:22;100096.63;;;-6.61;84.04
73151;BME280;61354;50.758;6.106;2022-12-18T09:01:15;100094.03;;;-6.49;83.90
73151;BME280;61354;50.758;6.106;2022-12-18T09:04:10;100093.06;;;-6.37;83.14
73151;BME280;61354;50.758;6.106;2022-12-18T09:12:57;100075.66;;;-6.04;82.55
73151;BME280;61354;50.758;6.106;2022-12-18T09:15:53;100051.00;;;-5.96;82.53
73151;BME280;61354;50.758;6.106;2022-12-18T09:21:24;100044.84;;;-5.73;81.15
73151;BME280;61354;50.758;6.106;2022-12-18T09:24:10;100041.00;;;-5.65;81.03
73151;BME280;61354;50.758;6.106;2022-12-18T09:26:54;100042.91;;;-5.54;81.40
73151;BME280;61354;50.758;6.106;2022-12-18T09:30:00;100051.16;;;-5.49;82.38
73151;BME280;61354;50.758;6.106;2022-12-18T09:37:20;100051.13;;;-5.19;81.21
73151;BME280;61354;50.758;6.106;2022-12-18T09:44:03;100049.75;;;-5.10;80.62
73151;BME280;61354;50.758;6.106;2022-12-18T10:01:54;100039.50;;;-4.49;81.14
73151;BME280;61354;50.758;6.106;2022-12-18T10:04:19;100041.50;;;-4.33;79.63
73151;BME280;61354;50.758;6.106;2022-12-18T10:09:38;100037.22;;;-4.17;80.72
73151;BME280;61354;50.758;6.106;2022-12-18T10:21:00;100021.34;;;-3.85;81.53
73151;BME280;61354;50.758;6.106;2022-12-18T10:26:12;100010.44;;;-3.73;80.81
73151;BME280;61354;50.758;6.106;2022-12-18T10:28:39;100015.03;;;-3.73;81.85
73151;BME280;61354;50.758;6.106;2022-12-18T10:31:38;100010.28;;;-3.66;81.42
73151;BME280;61354;50.758;6.106;2022-12-18T10:33:57;100013.28;;;-3.51;81.16
73151;BME280;61354;50.758;6.106;2022-12-18T10:36:24;100021.50;;;-3.46;80.93
73151;BME280;61354;50.758;6.106;2022-12-18T10:38:49;100020.56;;;-3.40;81.00
73151;BME280;61354;50.758;6.106;2022-12-18T10:43:44;100019.63;;;-3.29;80.67
73151;BME280;61354;50.758;6.106;2022-12-18T10:51:29;100012.50;;;-3.01;80.96
73151;BME280;61354;50.758;6.106;2022-12-18T10:54:07;100006.06;;;-2.95;80.50
73151;BME280;61354;50.758;6.106;2022-12-18T10:56:38;100011.09;;;-2.87;81.40
73151;BME280;61354;50.758;6.106;2022-12-18T10:59:10;100013.06;;;-2.82;80.28
73151;BME280;61354;50.758;6.106;2022-12-18T11:04:32;99994.78;;;-2.87;80.53
73151;BME280;61354;50.758;6.106;2022-12-18T11:07:07;99982.50;;;-2.72;81.45
73151;BME280;61354;50.758;6.106;2022-12-18T11:09:36;99974.41;;;-2.67;80.49
73151;BME280;61354;50.758;6.106;2022-12-18T11:12:04;99973.50;;;-2.56;81.19
73151;BME280;61354;50.758;6.106;2022-12-18T11:14:57;99979.00;;;-2.51;81.42
73151;BME280;61354;50.758;6.106;2022-12-18T11:17:30;99975.19;;;-2.50;79.63
73151;BME280;61354;50.758;6.106;2022-12-18T11:19:58;99974.75;;;-2.42;81.43
73151;BME280;61354;50.758;6.106;2022-12-18T11:22:26;99971.03;;;-2.36;80.14
73151;BME280;61354;50.758;6.106;2022-12-18T11:25:05;99962.44;;;-2.28;81.21
73151;BME280;61354;50.758;6.106;2022-12-18T11:27:32;99954.56;;;-2.24;81.73
73151;BME280;61354;50.758;6.106;2022-12-18T11:32:47;99947.41;;;-2.08;81.21
73151;BME280;61354;50.758;6.106;2022-12-18T11:37:58;99955.72;;;-1.98;80.17
73151;BME280;61354;50.758;6.106;2022-12-18T11:40:31;99950.31;;;-1.93;80.64
73151;BME280;61354;50.758;6.106;2022-12-18T11:43:03;99947.59;;;-1.93;81.52
73151;BME280;61354;50.758;6.106;2022-12-18T11:45:34;99941.44;;;-1.83;82.24
73151;BME280;61354;50.758;6.106;2022-12-18T11:48:17;99943.91;;;-1.82;81.96
73151;BME280;61354;50.758;6.106;2022-12-18T11:50:54;99936.25;;;-1.85;81.78
73151;BME280;61354;50.758;6.106;2022-12-18T11:53:21;99927.13;;;-1.73;82.02
73151;BME280;61354;50.758;6.106;2022-12-18T11:55:53;99923.94;;;-1.65;82.01
73151;BME280;61354;50.758;6.106;2022-12-18T12:20:22;99899.00;;;-1.15;81.68
73151;BME280;61354;50.758;6.106;2022-12-18T12:26:07;99908.63;;;-1.02;81.69
73151;BME280;61354;50.758;6.106;2022-12-18T12:31:07;99889.84;;;-0.98;81.74
73151;BME280;61354;50.758;6.106;2022-12-18T12:39:13;99890.75;;;-0.83;80.74
73151;BME280;61354;50.758;6.106;2022-12-18T12:41:42;99894.25;;;-0.87;80.70
73151;BME280;61354;50.758;6.106;2022-12-18T12:44:32;99881.69;;;-0.88;80.37
73151;BME280;61354;50.758;6.106;2022-12-18T12:47:07;99868.66;;;-0.86;81.33
73151;BME280;61354;50.758;6.106;2022-12-18T12:49:37;99860.72;;;-0.88;80.72
73151;BME280;61354;50.758;6.106;2022-12-18T12:52:49;99860.16;;;-0.95;80.54
73151;BME280;61354;50.758;6.106;2022-12-18T12:54:49;99859.66;;;-0.87;81.24
73151;BME280;61354;50.758;6.106;2022-12-18T12:57:27;99864.03;;;-0.81;81.06
73151;BME280;61354;50.758;6.106;2022-12-18T13:00:06;99868.69;;;-0.76;80.86
73151;BME280;61354;50.758;6.106;2022-12-18T13:02:48;99852.06;;;-0.74;81.24
73151;BME280;61354;50.758;6.106;2022-12-18T13:05:29;99846.06;;;-0.77;81.91
73151;BME280;61354;50.758;6.106;2022-12-18T13:08:10;99842.50;;;-0.77;82.19
73151;BME280;61354;50.758;6.106;2022-12-18T13:10:37;99840.06;;;-0.73;81.99
73151;BME280;61354;50.758;6.106;2022-12-18T13:13:09;99836.81;;;-0.70;82.30
73151;BME280;61354;50.758;6.106;2022-12-18T13:16:23;99822.09;;;-0.64;81.60
73151;BME280;61354;50.758;6.106;2022-12-18T13:18:24;99827.03;;;-0.61;81.72
73151;BME280;61354;50.758;6.106;2022-12-18T13:21:02;99810.97;;;-0.58;82.24
73151;BME280;61354;50.758;6.106;2022-12-18T13:23:31;99801.69;;;-0.57;82.35
73151;BME280;61354;50.758;6.106;2022-12-18T13:34:25;99804.16;;;-0.45;81.90
73151;BME280;61354;50.758;6.106;2022-12-18T13:36:55;99802.78;;;-0.42;81.99
73151;BME280;61354;50.758;6.106;2022-12-18T13:39:31;99800.63;;;-0.40;81.42
73151;BME280;61354;50.758;6.106;2022-12-18T13:44:34;99800.91;;;-0.32;80.78
73151;BME280;61354;50.758;6.106;2022-12-18T13:47:03;99798.19;;;-0.32;82.33
73151;BME280;61354;50.758;6.106;2022-12-18T13:49:39;99799.81;;;-0.31;82.87
73151;BME280;61354;50.758;6.106;2022-12-18T13:52:21;99795.19;;;-0.30;82.50
73151;BME280;61354;50.758;6.106;2022-12-18T13:54:55;99796.00;;;-0.30;82.54
73151;BME280;61354;50.758;6.106;2022-12-18T13:57:29;99785.66;;;-0.33;81.28
73151;BME280;61354;50.758;6.106;2022-12-18T13:59:55;99785.66;;;-0.33;81.83
73151;BME280;61354;50.758;6.106;2022-12-18T14:02:26;99788.63;;;-0.34;82.27
73151;BME280;61354;50.758;6.106;2022-12-18T14:04:54;99786.72;;;-0.34;82.64
73151;BME280;61354;50.758;6.106;2022-12-18T14:07:25;99780.72;;;-0.31;82.17
73151;BME280;61354;50.758;6.106;2022-12-18T14:09:53;99780.47;;;-0.24;80.64
73151;BME280;61354;50.758;6.106;2022-12-18T14:12:29;99769.81;;;-0.10;78.72
73151;BME280;61354;50.758;6.106;2022-12-18T14:17:49;99779.13;;;-0.11;82.00
73151;BME280;61354;50.758;6.106;2022-12-18T14:20:15;99773.66;;;-0.16;81.94
73151;BME280;61354;50.758;6.106;2022-12-18T14:22:46;99775.28;;;-0.15;82.39
73151;BME280;61354;50.758;6.106;2022-12-18T14:27:41;99782.38;;;-0.24;82.88
73151;BME280;61354;50.758;6.106;2022-12-18T14:30:30;99779.63;;;-0.30;82.72
73151;BME280;61354;50.758;6.106;2022-12-18T14:33:09;99775.25;;;-0.36;82.56
73151;BME280;61354;50.758;6.106;2022-12-18T14:35:40;99771.97;;;-0.38;82.80
73151;BME280;61354;50.758;6.106;2022-12-18T14:40:54;99779.63;;;-0.35;83.40
73151;BME280;61354;50.758;6.106;2022-12-18T14:43:20;99784.53;;;-0.37;83.42
73151;BME280;61354;50.758;6.106;2022-12-18T14:45:46;99783.44;;;-0.36;82.07
73151;BME280;61354;50.758;6.106;2022-12-18T14:48:20;99781.81;;;-0.27;81.67
73151;BME280;61354;50.758;6.106;2022-12-18T14:50:58;99784.00;;;-0.23;80.21
73151;BME280;61354;50.758;6.106;2022-12-18T14:55:59;99798.22;;;-0.11;79.02
73151;BME280;61354;50.758;6.106;2022-12-18T14:58:25;99791.66;;;-0.15;79.15
73151;BME280;61354;50.758;6.106;2022-12-18T15:00:51;99798.47;;;-0.23;79.16
73151;BME280;61354;50.758;6.106;2022-12-18T15:03:20;99801.50;;;-0.19;78.37
73151;BME280;61354;50.758;6.106;2022-12-18T15:05:47;99811.88;;;-0.11;75.25
73151;BME280;61354;50.758;6.106;2022-12-18T15:08:31;99806.41;;;-0.06;75.65
73151;BME280;61354;50.758;6.106;2022-12-18T15:10:59;99808.59;;;0.02;75.40
73151;BME280;61354;50.758;6.106;2022-12-18T15:13:25;99808.03;;;-0.05;76.44
73151;BME280;61354;50.758;6.106;2022-12-18T15:15:55;99812.72;;;0.05;75.19
73151;BME280;61354;50.758;6.106;2022-12-18T15:18:28;99806.41;;;0.04;74.31
73151;BME280;61354;50.758;6.106;2022-12-18T15:21:00;99799.59;;;0.07;74.13
73151;BME280;61354;50.758;6.106;2022-12-18T15:23:36;99801.78;;;0.05;73.52
73151;BME280;61354;50.758;6.106;2022-12-18T15:26:06;99799.31;;;0.03;73.78
73151;BME280;61354;50.758;6.106;2022-12-18T15:33:43;99792.75;;;0.04;73.35
73151;BME280;61354;50.758;6.106;2022-12-18T15:36:15;99788.13;;;0.15;71.25
73151;BME280;61354;50.758;6.106;2022-12-18T15:38:45;99777.75;;;0.12;71.19
73151;BME280;61354;50.758;6.106;2022-12-18T15:41:13;99774.75;;;0.13;71.72
73151;BME280;61354;50.758;6.106;2022-12-18T15:43:39;99782.38;;;0.16;71.10
73151;BME280;61354;50.758;6.106;2022-12-18T15:46:08;99785.41;;;0.15;70.49
73151;BME280;61354;50.758;6.106;2022-12-18T15:48:38;99784.03;;;0.12;72.34
73151;BME280;61354;50.758;6.106;2022-12-18T15:51:11;99782.13;;;0.13;70.27
73151;BME280;61354;50.758;6.106;2022-12-18T15:53:38;99787.84;;;0.11;70.87
73151;BME280;61354;50.758;6.106;2022-12-18T15:56:09;99779.13;;;0.14;70.28
73151;BME280;61354;50.758;6.106;2022-12-18T15:58:54;99775.81;;;0.12;69.24
73151;BME280;61354;50.758;6.106;2022-12-18T16:01:20;99774.47;;;0.10;70.50
73151;BME280;61354;50.758;6.106;2022-12-18T16:03:47;99768.75;;;0.11;69.71